createdAt,value
2022-12-02T08:17:12.669Z,101566.00
2022-12-02T08:19:42.026Z,101566.99
2022-12-02T08:22:10.137Z,101570.64
2022-12-02T08:24:44.813Z,101576.02
2022-12-02T08:27:13.985Z,101575.70
2022-12-02T08:29:41.399Z,101575.89
2022-12-02T08:32:10.082Z,101575.14
2022-12-02T08:34:37.152Z,101575.35
2022-12-02T08:37:04.296Z,101582.42
2022-12-02T08:39:34.464Z,101585.67
2022-12-02T08:42:04.258Z,101579.38
2022-12-02T08:44:33.229Z,101580.10
2022-12-02T08:47:00.558Z,101580.88
2022-12-02T08:49:27.897Z,101578.80
2022-12-02T08:51:57.089Z,101577.71
2022-12-02T08:54:25.254Z,101579.96
2022-12-02T08:56:54.777Z,101579.77
2022-12-02T08:59:24.357Z,101573.61
2022-12-02T09:01:51.740Z,101571.63
2022-12-02T09:04:18.893Z,101566.16
2022-12-02T09:06:46.519Z,101565.05
2022-12-02T09:09:15.403Z,101566.34
2022-12-02T09:11:42.884Z,101569.38
2022-12-02T09:14:12.377Z,101568.96
2022-12-02T09:16:40.200Z,101567.18
2022-12-02T09:19:07.260Z,101564.42
2022-12-02T09:21:34.576Z,101562.48
2022-12-02T09:24:02.567Z,101563.65
2022-12-02T09:26:30.182Z,101565.45
2022-12-02T09:29:00.201Z,101564.72
2022-12-02T09:31:27.253Z,101566.55
2022-12-02T09:35:36.046Z,101567.36
2022-12-02T09:47:49.741Z,101557.86
2022-12-02T09:50:51.629Z,101558.28
2022-12-02T09:53:37.497Z,101550.35
2022-12-02T09:57:22.054Z,101546.23
2022-12-02T10:04:52.831Z,101538.20
2022-12-02T10:07:42.607Z,101533.44
2022-12-02T10:13:22.398Z,101529.16
2022-12-02T10:15:52.152Z,101525.47
2022-12-02T10:18:31.694Z,101518.16
2022-12-02T10:21:06.381Z,101515.14
2022-12-02T10:23:59.505Z,101517.21
2022-12-02T10:26:27.671Z,101509.88
2022-12-02T10:29:08.256Z,101509.50
2022-12-02T10:34:31.776Z,101498.02
2022-12-02T10:37:26.050Z,101493.96
2022-12-02T10:40:18.871Z,101488.58
2022-12-02T10:42:46.948Z,101485.90
2022-12-02T10:49:29.928Z,101478.86
2022-12-02T10:52:53.628Z,101476.80
2022-12-02T10:56:23.839Z,101474.46
2022-12-02T10:59:14.353Z,101475.55
2022-12-02T11:01:46.960Z,101473.64
2022-12-02T11:08:00.924Z,101472.80
2022-12-02T11:27:38.467Z,101451.59
2022-12-02T11:30:07.504Z,101449.48
2022-12-02T11:32:42.567Z,101447.94
2022-12-02T11:35:19.210Z,101442.70
2022-12-02T11:37:48.650Z,101440.80
2022-12-02T11:40:19.305Z,101442.08
2022-12-02T11:47:04.680Z,101433.72
2022-12-02T11:49:41.768Z,101428.33
2022-12-02T11:52:09.288Z,101425.14
2022-12-02T11:55:00.545Z,101421.92
2022-12-02T11:57:31.838Z,101420.23
2022-12-02T12:00:06.027Z,101419.19
2022-12-02T12:02:41.693Z,101415.06
2022-12-02T12:05:10.465Z,101414.05
2022-12-02T12:07:49.273Z,101415.97
2022-12-02T12:10:23.573Z,101422.88
2022-12-02T12:13:13.993Z,101429.64
2022-12-02T12:16:02.638Z,101428.02
2022-12-02T12:18:44.792Z,101421.19
2022-12-02T12:21:33.976Z,101416.75
2022-12-02T12:24:22.660Z,101415.42
2022-12-02T12:26:52.539Z,101414.80
2022-12-02T12:29:25.861Z,101410.73
2022-12-02T12:31:54.641Z,101408.23
2022-12-02T12:34:22.780Z,101407.70
2022-12-02T12:36:50.664Z,101406.34
2022-12-02T12:39:21.928Z,101395.90
2022-12-02T12:42:05.464Z,101390.30
2022-12-02T12:44:33.118Z,101386.88
2022-12-02T12:47:06.507Z,101383.83
2022-12-02T12:49:37.839Z,101377.29
2022-12-02T12:52:05.518Z,101373.98
2022-12-02T12:54:32.580Z,101371.86
2022-12-02T12:57:02.406Z,101372.51
2022-12-02T12:59:29.855Z,101369.81
2022-12-02T13:01:58.690Z,101367.74
2022-12-02T13:04:26.994Z,101366.23
2022-12-02T13:06:54.312Z,101363.34
2022-12-02T13:09:21.599Z,101358.37
2022-12-02T13:11:48.937Z,101354.46
2022-12-02T13:14:17.437Z,101352.92
2022-12-02T13:16:47.309Z,101351.77
2022-12-02T13:19:14.737Z,101357.19
2022-12-02T13:21:44.727Z,101356.40
2022-12-02T13:24:15.906Z,101352.22
2022-12-02T13:26:56.700Z,101358.61
2022-12-02T13:29:23.893Z,101361.23
2022-12-02T13:31:51.111Z,101364.20
2022-12-02T13:34:31.150Z,101366.30
2022-12-02T13:36:58.534Z,101362.65
2022-12-02T13:39:25.965Z,101355.67
2022-12-02T13:41:54.486Z,101353.37
2022-12-02T13:44:23.793Z,101346.60
2022-12-02T13:46:52.715Z,101341.48
2022-12-02T13:49:21.488Z,101337.42
2022-12-02T13:51:52.213Z,101337.27
2022-12-02T13:54:23.212Z,101332.09
2022-12-02T13:56:50.383Z,101327.16
2022-12-02T13:59:17.742Z,101330.06
2022-12-02T14:01:45.820Z,101330.50
2022-12-02T14:04:13.825Z,101336.53
2022-12-02T14:06:45.600Z,101336.64
2022-12-02T14:09:13.736Z,101342.49
2022-12-02T14:11:52.927Z,101345.34
2022-12-02T14:14:20.752Z,101344.75
2022-12-02T14:16:53.720Z,101336.17
2022-12-02T14:19:22.099Z,101336.76
2022-12-02T14:25:46.034Z,101331.87
2022-12-02T14:28:24.645Z,101334.02
2022-12-02T14:34:31.288Z,101335.77
2022-12-02T14:36:58.875Z,101331.23
2022-12-02T14:39:26.525Z,101332.96
2022-12-02T14:41:54.322Z,101331.21
2022-12-02T14:44:22.082Z,101332.44
2022-12-02T14:46:49.353Z,101329.43
2022-12-02T14:49:39.098Z,101335.03
2022-12-02T14:52:04.088Z,101338.25
2022-12-02T14:54:31.048Z,101335.77
2022-12-02T14:56:58.815Z,101334.40
2022-12-02T14:59:29.028Z,101335.03
2022-12-02T15:01:57.102Z,101330.25
2022-12-02T15:04:27.268Z,101330.73
2022-12-02T15:06:54.693Z,101332.76
2022-12-02T15:09:22.716Z,101331.10
2022-12-02T15:11:53.645Z,101330.70
2022-12-02T15:14:24.211Z,101330.85
2022-12-02T15:16:51.256Z,101331.81
2022-12-02T15:19:18.843Z,101325.56
2022-12-02T15:21:45.888Z,101327.20
2022-12-02T15:24:14.905Z,101332.77
2022-12-02T15:26:42.909Z,101337.95
2022-12-02T15:29:09.893Z,101338.80
2022-12-02T15:31:37.174Z,101339.33
2022-12-02T15:34:05.021Z,101338.19
2022-12-02T15:36:33.762Z,101333.63
2022-12-02T15:39:01.019Z,101331.67
2022-12-02T15:41:28.341Z,101330.98
2022-12-02T15:43:55.468Z,101330.56
2022-12-02T15:46:25.049Z,101332.04
2022-12-02T15:48:55.579Z,101335.16
2022-12-02T15:51:22.740Z,101336.42
2022-12-02T15:53:53.886Z,101336.02
2022-12-02T15:56:29.529Z,101332.64
2022-12-02T15:58:56.573Z,101333.48
2022-12-02T16:01:23.687Z,101331.89
2022-12-02T16:03:52.928Z,101330.20
2022-12-02T16:06:21.341Z,101330.94
2022-12-02T16:08:54.943Z,101332.70
2022-12-02T16:11:24.290Z,101333.27
2022-12-02T16:13:55.047Z,101335.70
2022-12-02T16:16:23.274Z,101338.72
2022-12-02T16:18:50.589Z,101339.88
2022-12-02T16:21:27.773Z,101336.60
2022-12-02T16:23:57.389Z,101334.59
2022-12-02T16:26:24.957Z,101332.59
2022-12-02T16:28:54.078Z,101334.48
2022-12-02T16:31:22.925Z,101334.00
2022-12-02T16:33:50.578Z,101326.49
2022-12-02T16:36:18.871Z,101321.01
2022-12-02T16:38:53.827Z,101321.33
2022-12-02T16:41:22.795Z,101322.96
2022-12-02T16:43:54.069Z,101323.44
2022-12-02T16:46:21.618Z,101324.86
2022-12-02T16:48:50.388Z,101332.10
2022-12-02T16:51:22.001Z,101342.04
2022-12-02T16:56:45.450Z,101340.62
2022-12-02T16:59:19.567Z,101339.34
2022-12-02T17:01:47.364Z,101333.58
2022-12-02T17:04:14.542Z,101332.31
2022-12-02T17:06:41.752Z,101329.30
2022-12-02T17:09:10.787Z,101332.73
2022-12-02T17:11:42.500Z,101328.30
2022-12-02T17:14:15.737Z,101330.89
2022-12-02T17:16:44.067Z,101332.38
2022-12-02T17:19:12.800Z,101335.98
2022-12-02T17:21:40.058Z,101332.38
2022-12-02T17:24:08.597Z,101331.44
2022-12-02T17:26:35.705Z,101331.29
2022-12-02T17:29:03.487Z,101330.66
2022-12-02T17:31:31.421Z,101332.94
2022-12-02T17:33:58.608Z,101336.70
2022-12-02T17:36:27.842Z,101340.34
2022-12-02T17:38:57.752Z,101342.50
2022-12-02T17:41:26.206Z,101338.70
2022-12-02T17:47:29.752Z,101332.38
2022-12-02T17:49:57.556Z,101339.16
2022-12-02T17:52:26.768Z,101339.21
2022-12-02T17:54:56.424Z,101340.09
2022-12-02T18:00:53.225Z,101340.39
2022-12-02T18:03:20.896Z,101335.73
2022-12-02T18:05:52.467Z,101331.60
2022-12-02T18:08:20.752Z,101327.74
2022-12-02T18:10:53.083Z,101319.40
2022-12-02T18:13:23.038Z,101312.52
2022-12-02T18:15:51.797Z,101311.98
2022-12-02T18:18:19.922Z,101316.96
2022-12-02T18:20:55.151Z,101321.50
2022-12-02T18:26:20.680Z,101314.89
2022-12-02T18:28:52.039Z,101311.30
2022-12-02T18:31:19.277Z,101310.56
2022-12-02T18:33:48.958Z,101314.09
2022-12-02T18:36:19.116Z,101310.62
2022-12-02T18:38:49.627Z,101312.41
2022-12-02T18:41:18.907Z,101310.94
2022-12-02T18:43:46.798Z,101311.17
2022-12-02T18:46:14.191Z,101313.58
2022-12-02T18:52:10.465Z,101317.80
2022-12-02T18:54:38.015Z,101318.11
2022-12-02T18:57:15.663Z,101313.98
2022-12-02T18:59:43.053Z,101314.35
2022-12-02T19:02:14.989Z,101312.44
2022-12-02T19:04:49.574Z,101319.48
2022-12-02T19:07:19.519Z,101315.30
2022-12-02T19:09:53.248Z,101313.82
2022-12-02T19:19:11.038Z,101309.40
2022-12-02T19:24:30.720Z,101307.45
2022-12-02T19:26:58.024Z,101307.46
2022-12-02T19:29:27.453Z,101309.30
2022-12-02T19:31:57.333Z,101310.79
2022-12-02T19:34:25.785Z,101308.73
2022-12-02T19:36:53.252Z,101308.09
2022-12-02T19:43:41.107Z,101310.58
2022-12-02T19:59:55.065Z,101303.67
2022-12-02T20:11:52.880Z,101303.31
2022-12-02T20:14:38.752Z,101301.99
2022-12-02T20:17:12.396Z,101298.91
2022-12-02T20:19:43.878Z,101301.34
2022-12-02T20:22:11.893Z,101304.46
2022-12-02T20:24:43.928Z,101307.32
2022-12-02T20:27:15.189Z,101307.27
2022-12-02T20:29:42.302Z,101305.41
2022-12-02T20:32:09.716Z,101300.34
2022-12-02T20:34:42.080Z,101301.56
2022-12-02T20:37:09.395Z,101303.88
2022-12-02T20:39:37.391Z,101303.31
2022-12-02T20:42:08.172Z,101307.99
2022-12-02T20:44:35.944Z,101308.16
2022-12-02T20:47:05.798Z,101312.55
2022-12-02T20:49:33.156Z,101313.66
2022-12-02T20:52:03.739Z,101318.33
2022-12-02T20:54:31.604Z,101319.91
2022-12-02T20:56:59.355Z,101318.65
2022-12-02T20:59:26.690Z,101313.52
2022-12-02T21:01:53.825Z,101309.86
2022-12-02T21:04:25.207Z,101313.95
2022-12-02T21:06:52.423Z,101314.38
2022-12-02T21:09:22.064Z,101312.90
2022-12-02T21:11:49.402Z,101311.42
2022-12-02T21:14:17.266Z,101313.52
2022-12-02T21:16:44.519Z,101316.56
2022-12-02T21:19:12.881Z,101317.77
2022-12-02T21:21:40.032Z,101323.39
2022-12-02T21:24:12.115Z,101320.41
2022-12-02T21:26:42.046Z,101318.71
2022-12-02T21:29:11.073Z,101315.95
2022-12-02T21:31:38.624Z,101314.44
2022-12-02T21:34:07.663Z,101314.40
2022-12-02T21:36:38.818Z,101314.50
2022-12-02T21:39:08.296Z,101311.16
2022-12-02T21:41:36.683Z,101311.05
2022-12-02T21:44:04.338Z,101312.64
2022-12-02T21:46:36.096Z,101311.46
2022-12-02T21:49:03.756Z,101309.13
2022-12-02T21:51:30.909Z,101307.39
2022-12-02T21:53:58.478Z,101309.92
2022-12-02T21:56:29.652Z,101311.66
2022-12-02T21:58:59.298Z,101311.77
2022-12-02T22:01:41.189Z,101312.56
2022-12-02T22:04:11.584Z,101303.67
2022-12-02T22:06:40.255Z,101301.77
2022-12-02T22:09:08.478Z,101300.64
2022-12-02T22:11:37.779Z,101298.71
2022-12-02T22:14:06.131Z,101294.48
2022-12-02T22:16:33.242Z,101292.52
2022-12-02T22:19:13.299Z,101292.68
2022-12-02T22:21:45.804Z,101288.77
2022-12-02T22:24:20.195Z,101288.66
2022-12-02T22:26:47.346Z,101287.60
2022-12-02T22:29:14.922Z,101284.91
2022-12-02T22:31:42.406Z,101283.43
2022-12-02T22:34:10.188Z,101283.75
2022-12-02T22:36:38.895Z,101284.59
2022-12-02T22:39:07.349Z,101282.60
2022-12-02T22:41:34.605Z,101281.08
2022-12-02T22:44:02.390Z,101278.70
2022-12-02T22:46:29.479Z,101275.15
2022-12-02T22:48:56.494Z,101268.88
2022-12-02T22:51:28.574Z,101264.11
2022-12-02T22:53:59.973Z,101261.31
2022-12-02T22:56:28.045Z,101265.32
2022-12-02T22:58:56.679Z,101255.08
2022-12-02T23:01:35.348Z,101254.18
2022-12-02T23:04:02.682Z,101249.11
2022-12-02T23:06:31.504Z,101249.54
2022-12-02T23:08:58.752Z,101250.11
2022-12-02T23:11:26.143Z,101253.61
2022-12-02T23:13:53.355Z,101249.40
2022-12-02T23:16:20.706Z,101247.65
2022-12-02T23:18:48.130Z,101243.98
2022-12-02T23:21:15.284Z,101241.61
2022-12-02T23:23:44.840Z,101241.98
2022-12-02T23:26:17.855Z,101241.83
2022-12-02T23:28:45.720Z,101241.34
2022-12-02T23:33:59.844Z,101235.42
2022-12-02T23:36:31.974Z,101233.98
2022-12-02T23:39:02.562Z,101230.61
2022-12-02T23:41:30.176Z,101226.38
2022-12-02T23:43:57.200Z,101215.86
2022-12-02T23:46:27.443Z,101212.02
2022-12-02T23:48:54.817Z,101208.05
2022-12-02T23:51:27.097Z,101208.90
2022-12-02T23:53:54.657Z,101211.01
2022-12-02T23:56:23.918Z,101209.00
2022-12-02T23:58:51.338Z,101210.70
